Terminal Aerodrome Forecast
Issued by NWS

Current Version | Previous Version | Graphics & Text | Print | Product List | Glossary Off
Versions: 1 2 3 4 5 6 7 8 9 10 11 12 13 14 15 16 17 18 19

000
FTUS41 KILN 212300
TAFLUK
TAF
KLUK 212337Z 2200/2224 10003KT P6SM BKN250
     FM221000 13003KT P6SM VCSH BKN025
     FM221600 13006KT P6SM BKN025
     FM222000 13008KT P6SM SCT030 BKN080=

USA.gov is the U.S. government's official web portal to all federal, state and local government web resources and services.